createdAt,value
2023-03-30T00:00:01.081Z,0.48
2023-03-30T00:02:37.583Z,0.44
2023-03-30T00:05:11.854Z,0.47
2023-03-30T00:07:46.556Z,0.48
2023-03-30T00:10:20.122Z,0.50
2023-03-30T00:12:53.591Z,0.45
2023-03-30T00:15:26.750Z,0.43
2023-03-30T00:18:00.552Z,0.46
2023-03-30T00:20:33.635Z,0.46
2023-03-30T00:23:07.143Z,0.41
2023-03-30T00:25:39.886Z,0.41
2023-03-30T00:28:12.389Z,0.41
2023-03-30T00:30:46.695Z,0.39
2023-03-30T00:33:27.488Z,0.33
2023-03-30T00:35:58.525Z,0.29
2023-03-30T00:38:30.950Z,0.26
2023-03-30T00:41:03.621Z,0.26
2023-03-30T00:43:38.764Z,0.24
2023-03-30T00:46:11.645Z,0.16
2023-03-30T00:48:45.269Z,0.15
2023-03-30T00:51:18.045Z,0.18
2023-03-30T00:53:53.074Z,0.13
2023-03-30T00:56:28.152Z,0.09
2023-03-30T00:59:02.676Z,0.03
2023-03-30T01:01:37.025Z,0.05
2023-03-30T01:04:11.347Z,0.08
2023-03-30T01:06:46.022Z,0.11
2023-03-30T01:09:19.130Z,0.13
2023-03-30T01:11:52.199Z,0.14
2023-03-30T01:14:24.580Z,0.12
2023-03-30T01:17:23.449Z,0.14
2023-03-30T01:20:38.748Z,0.11
2023-03-30T01:23:52.555Z,0.08
2023-03-30T01:26:45.286Z,0.10
2023-03-30T01:29:22.618Z,0.05
2023-03-30T01:32:18.002Z,0.03
2023-03-30T01:34:57.277Z,0.03
2023-03-30T01:37:47.056Z,0.00
2023-03-30T01:40:29.919Z,-0.05
2023-03-30T01:43:18.947Z,-0.09
2023-03-30T01:46:11.613Z,-0.07
2023-03-30T01:49:20.460Z,-0.13
2023-03-30T01:52:04.006Z,-0.16
2023-03-30T01:54:58.937Z,-0.19
2023-03-30T01:57:42.659Z,-0.17
2023-03-30T02:00:18.019Z,-0.16
2023-03-30T02:02:59.317Z,-0.12
2023-03-30T02:05:32.086Z,-0.14
2023-03-30T02:08:12.469Z,-0.15
2023-03-30T02:10:46.024Z,-0.14
2023-03-30T02:13:18.712Z,-0.14
2023-03-30T02:15:59.789Z,-0.08
2023-03-30T02:18:32.784Z,-0.10
2023-03-30T02:21:06.378Z,-0.10
2023-03-30T02:23:53.305Z,-0.12
2023-03-30T02:26:27.511Z,-0.11
2023-03-30T02:29:00.595Z,-0.11
2023-03-30T02:31:34.564Z,-0.15
2023-03-30T02:34:29.953Z,-0.21
2023-03-30T02:37:19.449Z,-0.25
2023-03-30T02:40:00.200Z,-0.26
2023-03-30T02:43:13.266Z,-0.29
2023-03-30T02:45:53.732Z,-0.29
2023-03-30T02:48:52.568Z,-0.27
2023-03-30T02:51:44.859Z,-0.27
2023-03-30T02:54:42.582Z,-0.25
2023-03-30T03:01:04.371Z,-0.28
2023-03-30T03:03:49.675Z,-0.30
2023-03-30T03:06:23.941Z,-0.32
2023-03-30T03:08:58.322Z,-0.33
2023-03-30T03:11:32.509Z,-0.36
2023-03-30T03:14:05.809Z,-0.36
2023-03-30T03:16:39.723Z,-0.36
2023-03-30T03:19:17.154Z,-0.37
2023-03-30T03:21:52.870Z,-0.38
2023-03-30T03:24:25.736Z,-0.42
2023-03-30T03:27:01.143Z,-0.45
2023-03-30T03:29:36.490Z,-0.44
2023-03-30T03:32:09.595Z,-0.41
2023-03-30T03:34:46.867Z,-0.41
2023-03-30T03:37:19.325Z,-0.46
2023-03-30T03:39:52.963Z,-0.51
2023-03-30T03:42:25.821Z,-0.51
2023-03-30T03:45:00.237Z,-0.51
2023-03-30T03:47:34.841Z,-0.51
2023-03-30T03:50:10.101Z,-0.51
2023-03-30T03:52:43.361Z,-0.51
2023-03-30T03:55:16.294Z,-0.51
2023-03-30T03:57:49.433Z,-0.49
2023-03-30T04:00:23.579Z,-0.45
2023-03-30T04:02:57.559Z,-0.40
2023-03-30T04:05:31.031Z,-0.31
2023-03-30T04:08:04.941Z,-0.24
2023-03-30T04:10:39.274Z,-0.21
2023-03-30T04:13:24.584Z,-0.18
2023-03-30T04:16:16.512Z,-0.12
2023-03-30T04:19:00.108Z,-0.11
2023-03-30T04:21:44.625Z,-0.05
2023-03-30T04:24:23.120Z,0.00
2023-03-30T04:27:08.328Z,0.06
2023-03-30T04:29:45.848Z,0.09
2023-03-30T04:32:39.958Z,0.14
2023-03-30T04:35:33.846Z,0.22
2023-03-30T04:38:14.186Z,0.35
2023-03-30T04:40:53.172Z,0.48
2023-03-30T04:43:27.378Z,0.61
2023-03-30T04:46:13.686Z,0.80
2023-03-30T04:48:51.261Z,0.96
2023-03-30T04:51:28.372Z,1.11
2023-03-30T04:54:06.751Z,1.27
2023-03-30T04:56:47.881Z,1.38
2023-03-30T04:59:22.273Z,1.46
2023-03-30T05:02:04.142Z,1.62
2023-03-30T05:04:41.681Z,1.83
2023-03-30T05:07:24.758Z,2.05
2023-03-30T05:10:09.637Z,2.31
2023-03-30T05:12:45.556Z,2.64
2023-03-30T05:15:20.313Z,2.90
2023-03-30T05:18:02.029Z,3.18
2023-03-30T05:20:36.673Z,3.45
2023-03-30T05:23:19.895Z,3.74
2023-03-30T05:26:07.595Z,4.03
2023-03-30T05:28:40.265Z,4.35
2023-03-30T05:31:14.935Z,4.53
2023-03-30T05:33:55.905Z,4.75
2023-03-30T05:36:48.305Z,5.00
2023-03-30T05:39:38.679Z,5.31
2023-03-30T05:42:14.290Z,5.50
2023-03-30T05:44:47.917Z,5.69
2023-03-30T05:47:29.191Z,5.81
2023-03-30T05:50:12.810Z,5.95
2023-03-30T05:52:59.629Z,6.16
2023-03-30T05:55:34.549Z,6.35
2023-03-30T05:58:08.954Z,6.55
2023-03-30T06:01:01.062Z,6.75
2023-03-30T06:03:36.537Z,6.97
2023-03-30T06:06:10.452Z,7.05
2023-03-30T06:08:43.496Z,7.09
2023-03-30T06:11:17.745Z,7.21
2023-03-30T06:13:51.923Z,7.37
2023-03-30T06:16:25.787Z,7.58
2023-03-30T06:18:58.742Z,7.72
2023-03-30T06:21:32.852Z,7.71
2023-03-30T06:24:08.465Z,7.78
2023-03-30T06:26:43.230Z,7.92
2023-03-30T06:29:16.080Z,7.97
2023-03-30T06:31:48.551Z,7.96
2023-03-30T06:34:22.752Z,8.03
2023-03-30T06:36:55.326Z,8.18
2023-03-30T06:39:30.023Z,8.34
2023-03-30T06:42:02.698Z,8.52
2023-03-30T06:44:40.010Z,8.74
2023-03-30T06:47:14.293Z,9.04
2023-03-30T06:49:47.068Z,9.27
2023-03-30T06:52:40.835Z,9.38
2023-03-30T06:55:13.945Z,9.39
2023-03-30T06:57:46.715Z,9.49
2023-03-30T07:00:19.991Z,9.55
2023-03-30T07:03:12.013Z,9.60
2023-03-30T07:05:51.180Z,9.76
2023-03-30T07:08:28.833Z,9.86
2023-03-30T07:11:07.304Z,9.90
2023-03-30T07:13:43.134Z,10.04
2023-03-30T07:16:16.587Z,10.30
2023-03-30T07:18:49.226Z,10.40
2023-03-30T07:21:22.342Z,10.47
2023-03-30T07:23:55.049Z,10.61
2023-03-30T07:26:33.068Z,10.73
2023-03-30T07:29:07.632Z,10.79
2023-03-30T07:31:41.915Z,10.89
2023-03-30T07:34:17.357Z,10.98
2023-03-30T07:36:51.611Z,11.19
2023-03-30T07:39:25.417Z,11.24
2023-03-30T07:41:58.052Z,11.23
2023-03-30T07:44:31.177Z,11.24
2023-03-30T07:47:07.055Z,11.31
2023-03-30T07:49:40.301Z,11.48
2023-03-30T07:52:14.098Z,11.57
2023-03-30T07:54:48.196Z,11.60
2023-03-30T07:57:25.755Z,11.68
2023-03-30T07:59:58.613Z,11.86
2023-03-30T08:02:37.012Z,12.01
2023-03-30T08:05:11.831Z,12.22
2023-03-30T08:07:54.214Z,12.41
2023-03-30T08:10:29.616Z,12.52
2023-03-30T08:13:03.433Z,12.58
2023-03-30T08:15:37.040Z,12.76
2023-03-30T08:18:09.679Z,12.88
2023-03-30T08:20:43.606Z,12.93
2023-03-30T08:23:16.824Z,13.05
2023-03-30T08:25:51.530Z,13.02
2023-03-30T08:28:42.239Z,13.12
2023-03-30T08:31:17.314Z,13.24
2023-03-30T08:33:51.060Z,13.43
2023-03-30T08:36:24.677Z,13.64
2023-03-30T08:38:58.548Z,13.61
2023-03-30T08:41:51.176Z,13.44
2023-03-30T08:44:40.420Z,13.46
2023-03-30T08:47:17.974Z,13.60
2023-03-30T08:50:19.309Z,13.62
2023-03-30T08:52:52.169Z,13.67
2023-03-30T08:55:32.431Z,13.67
2023-03-30T08:58:33.001Z,13.80
2023-03-30T09:01:25.330Z,13.89
2023-03-30T09:04:11.783Z,13.98
2023-03-30T09:06:57.638Z,14.11
2023-03-30T09:09:32.594Z,14.11
2023-03-30T09:12:41.300Z,14.23
2023-03-30T09:15:30.516Z,14.47
2023-03-30T09:18:07.540Z,14.70
2023-03-30T09:20:40.634Z,14.95
2023-03-30T09:23:16.611Z,14.98
2023-03-30T09:26:08.679Z,14.93
2023-03-30T09:28:50.542Z,14.82
2023-03-30T09:31:41.860Z,14.87
2023-03-30T09:34:48.350Z,14.74
2023-03-30T09:37:22.508Z,14.77
2023-03-30T09:39:55.392Z,14.78
2023-03-30T09:42:38.882Z,14.92
2023-03-30T09:45:33.161Z,14.96
2023-03-30T09:48:08.782Z,15.02
2023-03-30T09:51:03.629Z,15.18
2023-03-30T09:53:38.088Z,15.26
2023-03-30T09:56:24.510Z,15.14
2023-03-30T09:58:57.474Z,15.17
2023-03-30T10:01:38.724Z,15.21
2023-03-30T10:04:13.105Z,15.27
2023-03-30T10:06:51.574Z,15.34
2023-03-30T10:09:26.034Z,15.45
2023-03-30T10:11:58.296Z,15.62
2023-03-30T10:14:36.451Z,15.56
2023-03-30T10:17:26.675Z,15.52
2023-03-30T10:20:24.556Z,15.50
2023-03-30T10:23:15.220Z,15.55
2023-03-30T10:25:50.650Z,15.65
2023-03-30T10:28:29.862Z,15.77
2023-03-30T10:31:08.875Z,15.88
2023-03-30T10:33:44.066Z,16.04
2023-03-30T10:36:17.503Z,16.06
2023-03-30T10:38:50.052Z,15.82
2023-03-30T10:41:24.089Z,15.74
2023-03-30T10:43:56.528Z,16.03
2023-03-30T10:46:29.052Z,16.01
2023-03-30T10:49:23.151Z,15.83
2023-03-30T10:52:11.908Z,15.94
2023-03-30T10:54:57.263Z,16.15
2023-03-30T10:57:40.322Z,16.17
2023-03-30T11:00:20.805Z,16.19
2023-03-30T11:03:05.119Z,16.14
2023-03-30T11:05:41.416Z,15.92
2023-03-30T11:08:29.758Z,15.73
2023-03-30T11:11:03.770Z,15.72
2023-03-30T11:13:42.727Z,15.47
2023-03-30T11:16:39.453Z,15.19
2023-03-30T11:19:35.245Z,15.27
2023-03-30T11:22:33.639Z,15.34
2023-03-30T11:25:10.927Z,15.33
2023-03-30T11:27:56.575Z,15.39
2023-03-30T11:30:31.652Z,15.58
2023-03-30T11:33:29.609Z,15.81
2023-03-30T11:36:20.249Z,15.91
2023-03-30T11:39:07.255Z,15.98
2023-03-30T11:42:03.016Z,16.22
2023-03-30T11:44:37.094Z,16.22
2023-03-30T11:47:30.455Z,16.20
2023-03-30T11:50:12.137Z,15.88
2023-03-30T11:52:53.952Z,15.66
2023-03-30T11:55:37.612Z,15.61
2023-03-30T11:58:34.648Z,15.64
2023-03-30T12:01:43.647Z,15.68
2023-03-30T12:04:29.755Z,15.64
2023-03-30T12:07:04.028Z,15.54
2023-03-30T12:09:42.288Z,15.60
2023-03-30T12:12:39.630Z,15.63
2023-03-30T12:15:50.272Z,15.58
2023-03-30T12:18:46.479Z,15.50
2023-03-30T12:21:53.914Z,15.60
2023-03-30T12:25:12.706Z,15.63
2023-03-30T12:28:16.339Z,15.69
2023-03-30T12:30:58.300Z,15.74
2023-03-30T12:33:39.541Z,15.44
2023-03-30T12:36:41.514Z,14.83
2023-03-30T12:39:24.931Z,14.06
2023-03-30T12:42:10.522Z,13.42
2023-03-30T12:45:20.360Z,12.85
2023-03-30T12:48:19.173Z,12.45
2023-03-30T12:51:02.871Z,12.15
2023-03-30T12:54:17.551Z,11.88
2023-03-30T12:57:30.283Z,11.64
2023-03-30T13:00:15.852Z,11.46
2023-03-30T13:02:59.367Z,11.18
2023-03-30T13:05:35.580Z,10.97
2023-03-30T13:08:19.394Z,10.89
2023-03-30T13:10:52.777Z,10.77
2023-03-30T13:13:47.890Z,10.62
2023-03-30T13:16:57.538Z,10.44
2023-03-30T13:19:41.416Z,10.23
2023-03-30T13:22:19.005Z,10.05
2023-03-30T13:25:37.631Z,9.93
2023-03-30T13:28:56.818Z,9.80
2023-03-30T13:31:58.164Z,9.68
2023-03-30T13:34:54.867Z,9.55
2023-03-30T13:41:26.867Z,9.35
2023-03-30T13:44:35.505Z,9.22
2023-03-30T13:47:29.179Z,9.17
2023-03-30T13:50:05.968Z,9.15
2023-03-30T13:52:43.489Z,9.13
2023-03-30T13:55:26.515Z,9.10
2023-03-30T13:58:06.191Z,9.08
2023-03-30T14:00:54.588Z,9.03
2023-03-30T14:03:42.116Z,8.96
2023-03-30T14:06:19.074Z,8.94
2023-03-30T14:09:09.939Z,8.92
2023-03-30T14:11:58.805Z,8.87
2023-03-30T14:14:53.286Z,8.95
2023-03-30T14:17:25.974Z,9.26
2023-03-30T14:20:32.349Z,9.58
2023-03-30T14:23:03.996Z,9.80
2023-03-30T14:25:43.025Z,9.99
2023-03-30T14:28:20.418Z,10.09
2023-03-30T14:30:59.233Z,10.21
2023-03-30T14:33:34.431Z,10.26
2023-03-30T14:36:09.483Z,10.29
2023-03-30T14:38:48.538Z,10.31
2023-03-30T14:41:29.261Z,10.33
2023-03-30T14:44:07.404Z,10.31
2023-03-30T14:46:48.698Z,10.23
2023-03-30T14:49:24.469Z,10.11
2023-03-30T14:52:13.108Z,9.94
2023-03-30T14:54:54.504Z,9.80
2023-03-30T14:57:21.977Z,9.64
2023-03-30T15:00:00.898Z,9.51
2023-03-30T15:02:34.496Z,9.39
2023-03-30T15:05:07.331Z,9.31
2023-03-30T15:07:40.544Z,9.23
2023-03-30T15:10:26.841Z,9.18
2023-03-30T15:13:00.938Z,9.13
2023-03-30T15:15:34.128Z,9.00
2023-03-30T15:18:06.681Z,8.95
2023-03-30T15:20:40.135Z,8.90
2023-03-30T15:23:14.218Z,8.79
2023-03-30T15:25:46.760Z,8.67
2023-03-30T15:28:21.023Z,8.58
2023-03-30T15:30:54.149Z,8.47
2023-03-30T15:33:45.952Z,8.35
2023-03-30T15:36:25.141Z,8.26
2023-03-30T15:38:59.568Z,8.20
2023-03-30T15:41:52.456Z,8.13
2023-03-30T15:44:25.442Z,8.09
2023-03-30T15:46:58.786Z,8.04
2023-03-30T15:49:42.092Z,7.99
2023-03-30T15:52:36.881Z,7.95
2023-03-30T15:55:25.640Z,7.86
2023-03-30T15:57:59.769Z,7.77
2023-03-30T16:00:34.544Z,7.75
2023-03-30T16:03:09.827Z,7.68
2023-03-30T16:05:45.513Z,7.62
2023-03-30T16:08:18.506Z,7.55
2023-03-30T16:10:51.952Z,7.51
2023-03-30T16:13:24.981Z,7.46
2023-03-30T16:15:57.943Z,7.42
2023-03-30T16:18:31.192Z,7.37
2023-03-30T16:21:05.558Z,7.32
2023-03-30T16:23:39.605Z,7.29
2023-03-30T16:26:14.051Z,7.26
2023-03-30T16:28:46.836Z,7.22
2023-03-30T16:31:22.581Z,7.18
2023-03-30T16:33:55.875Z,7.13
2023-03-30T16:36:29.514Z,7.07
2023-03-30T16:39:04.420Z,7.00
2023-03-30T16:41:37.043Z,6.98
2023-03-30T16:44:10.292Z,6.94
2023-03-30T16:46:44.228Z,6.91
2023-03-30T16:49:24.659Z,6.88
2023-03-30T16:51:58.397Z,6.85
2023-03-30T16:54:34.031Z,6.82
2023-03-30T16:57:10.092Z,6.79
2023-03-30T16:59:43.429Z,6.77
2023-03-30T17:02:19.393Z,6.75
2023-03-30T17:04:52.400Z,6.73
2023-03-30T17:07:26.755Z,6.70
2023-03-30T17:09:59.706Z,6.67
2023-03-30T17:12:33.187Z,6.64
2023-03-30T17:15:06.690Z,6.61
2023-03-30T17:17:40.339Z,6.57
2023-03-30T17:20:27.832Z,6.54
2023-03-30T17:23:00.446Z,6.53
2023-03-30T17:25:35.987Z,6.51
2023-03-30T17:28:11.999Z,6.49
2023-03-30T17:30:44.997Z,6.50
2023-03-30T17:33:18.553Z,6.55
2023-03-30T17:35:54.666Z,6.56
2023-03-30T17:38:28.857Z,6.57
2023-03-30T17:41:02.460Z,6.65
2023-03-30T17:43:35.022Z,6.72
2023-03-30T17:46:09.063Z,6.73
2023-03-30T17:48:42.020Z,6.69
2023-03-30T17:51:15.628Z,6.62
2023-03-30T17:53:48.389Z,6.55
2023-03-30T17:56:22.189Z,6.54
2023-03-30T17:58:55.918Z,6.58
2023-03-30T18:01:29.238Z,6.59
2023-03-30T18:04:02.882Z,6.62
2023-03-30T18:06:36.449Z,6.63
2023-03-30T18:09:17.703Z,6.62
2023-03-30T18:11:50.864Z,6.57
2023-03-30T18:14:23.897Z,6.56
2023-03-30T18:17:05.937Z,6.53
2023-03-30T18:19:31.587Z,6.48
2023-03-30T18:22:04.698Z,6.44
2023-03-30T18:24:39.935Z,6.42
2023-03-30T18:27:13.953Z,6.39
2023-03-30T18:29:47.765Z,6.38
2023-03-30T18:32:20.790Z,6.38
2023-03-30T18:34:53.541Z,6.36
2023-03-30T18:37:26.472Z,6.40
2023-03-30T18:39:59.441Z,6.37
2023-03-30T18:42:32.687Z,6.37
2023-03-30T18:45:08.173Z,6.34
2023-03-30T18:47:42.265Z,6.32
2023-03-30T18:50:25.498Z,6.30
2023-03-30T18:52:58.755Z,6.28
2023-03-30T18:55:35.235Z,6.27
2023-03-30T18:58:31.479Z,6.28
2023-03-30T19:01:04.991Z,6.31
2023-03-30T19:03:39.327Z,6.31
2023-03-30T19:06:14.683Z,6.32
2023-03-30T19:08:50.305Z,6.36
2023-03-30T19:11:27.192Z,6.38
2023-03-30T19:14:00.914Z,6.42
2023-03-30T19:16:34.354Z,6.46
2023-03-30T19:19:09.045Z,6.50
2023-03-30T19:21:43.151Z,6.53
2023-03-30T19:24:16.071Z,6.57
2023-03-30T19:26:49.449Z,6.58
2023-03-30T19:29:22.687Z,6.64
2023-03-30T19:31:58.249Z,6.67
2023-03-30T19:34:31.769Z,6.69
2023-03-30T19:37:06.224Z,6.70
2023-03-30T19:39:38.722Z,6.72
2023-03-30T19:42:12.397Z,6.72
2023-03-30T19:44:45.377Z,6.74
2023-03-30T19:47:18.999Z,6.74
2023-03-30T19:49:52.212Z,6.73
2023-03-30T19:52:25.128Z,6.76
2023-03-30T19:54:58.245Z,6.79
2023-03-30T19:57:31.309Z,6.80
2023-03-30T20:00:10.671Z,6.81
2023-03-30T20:02:47.810Z,6.82
2023-03-30T20:05:21.874Z,6.85
2023-03-30T20:07:54.968Z,6.87
2023-03-30T20:10:27.797Z,6.84
2023-03-30T20:13:00.418Z,6.88
2023-03-30T20:15:33.491Z,6.89
2023-03-30T20:18:06.665Z,6.89
2023-03-30T20:20:39.285Z,6.86
2023-03-30T20:23:12.317Z,6.88
2023-03-30T20:25:49.643Z,6.87
2023-03-30T20:28:22.812Z,6.86
2023-03-30T20:30:57.649Z,6.87
2023-03-30T20:33:30.774Z,6.87
2023-03-30T20:36:03.421Z,6.87
2023-03-30T20:38:38.019Z,6.89
2023-03-30T20:41:11.756Z,6.91
2023-03-30T20:43:57.074Z,6.92
2023-03-30T20:46:26.192Z,6.94
2023-03-30T20:49:00.706Z,6.96
2023-03-30T20:51:33.485Z,7.00
2023-03-30T20:54:07.159Z,7.00
2023-03-30T20:56:41.378Z,7.00
2023-03-30T20:59:13.849Z,6.99
2023-03-30T21:01:49.153Z,6.96
2023-03-30T21:04:21.974Z,6.84
2023-03-30T21:06:56.301Z,6.71
2023-03-30T21:09:29.700Z,6.57
2023-03-30T21:12:02.040Z,6.45
2023-03-30T21:14:35.526Z,6.34
2023-03-30T21:17:08.149Z,6.25
2023-03-30T21:19:41.079Z,6.14
2023-03-30T21:22:14.887Z,6.08
2023-03-30T21:24:47.766Z,6.06
2023-03-30T21:27:20.722Z,6.03
2023-03-30T21:29:53.780Z,6.01
2023-03-30T21:32:26.394Z,6.02
2023-03-30T21:34:59.322Z,6.04
2023-03-30T21:37:33.267Z,6.09
2023-03-30T21:40:08.878Z,6.12
2023-03-30T21:42:41.443Z,6.17
2023-03-30T21:45:14.162Z,6.24
2023-03-30T21:47:46.752Z,6.31
2023-03-30T21:50:19.592Z,6.35
2023-03-30T21:52:59.434Z,6.38
2023-03-30T21:55:32.270Z,6.42
2023-03-30T21:58:05.266Z,6.45
2023-03-30T22:00:37.688Z,6.48
2023-03-30T22:03:11.384Z,6.49
2023-03-30T22:05:43.971Z,6.54
2023-03-30T22:08:18.316Z,6.58
2023-03-30T22:10:59.772Z,6.60
2023-03-30T22:13:32.554Z,6.61
2023-03-30T22:16:09.063Z,6.61
2023-03-30T22:18:42.474Z,6.62
2023-03-30T22:21:18.688Z,6.63
2023-03-30T22:23:51.467Z,6.64
2023-03-30T22:26:23.938Z,6.65
2023-03-30T22:28:57.120Z,6.64
2023-03-30T22:31:30.921Z,6.59
2023-03-30T22:34:04.216Z,6.51
2023-03-30T22:36:37.023Z,6.41
2023-03-30T22:39:10.181Z,6.38
2023-03-30T22:41:43.174Z,6.36
2023-03-30T22:44:17.301Z,6.30
2023-03-30T22:46:50.075Z,6.27
2023-03-30T22:49:24.230Z,6.27
2023-03-30T22:51:58.766Z,6.30
2023-03-30T22:54:32.450Z,6.29
2023-03-30T22:57:05.749Z,6.33
2023-03-30T22:59:40.041Z,6.33
2023-03-30T23:02:12.960Z,6.31
2023-03-30T23:04:47.108Z,6.32
2023-03-30T23:07:19.925Z,6.27
2023-03-30T23:09:52.520Z,6.26
2023-03-30T23:12:26.525Z,6.20
2023-03-30T23:14:59.574Z,6.18
2023-03-30T23:17:32.271Z,6.19
2023-03-30T23:20:10.622Z,6.20
2023-03-30T23:22:43.650Z,6.21
2023-03-30T23:25:16.780Z,6.20
2023-03-30T23:27:49.413Z,6.18
2023-03-30T23:30:21.994Z,6.18
2023-03-30T23:32:55.350Z,6.17
2023-03-30T23:35:29.298Z,6.18
2023-03-30T23:38:03.371Z,6.20
2023-03-30T23:40:36.338Z,6.21
2023-03-30T23:43:08.970Z,6.23
2023-03-30T23:45:43.339Z,6.28
2023-03-30T23:48:15.901Z,6.32
2023-03-30T23:50:48.659Z,6.35
2023-03-30T23:53:21.193Z,6.39
2023-03-30T23:55:54.279Z,6.42
2023-03-30T23:58:27.014Z,6.42
